createdAt,value
2023-05-23T00:01:47.236Z,13.14
2023-05-23T00:04:19.226Z,13.10
2023-05-23T00:06:51.464Z,13.06
2023-05-23T00:09:20.349Z,13.02
2023-05-23T00:11:49.026Z,12.98
2023-05-23T00:14:18.326Z,12.94
2023-05-23T00:16:50.039Z,12.92
2023-05-23T00:19:19.039Z,12.87
2023-05-23T00:21:49.050Z,12.85
2023-05-23T00:24:19.195Z,12.82
2023-05-23T00:26:47.908Z,12.78
2023-05-23T00:29:17.324Z,12.74
2023-05-23T00:31:47.260Z,12.69
2023-05-23T00:34:19.708Z,12.64
2023-05-23T00:36:50.797Z,12.60
2023-05-23T00:39:20.205Z,12.56
2023-05-23T00:41:52.318Z,12.52
2023-05-23T00:44:22.458Z,12.48
2023-05-23T00:46:54.233Z,12.46
2023-05-23T00:49:24.125Z,12.43
2023-05-23T00:51:53.095Z,12.40
2023-05-23T00:54:31.478Z,12.38
2023-05-23T00:57:00.364Z,12.36
2023-05-23T00:59:29.703Z,12.34
2023-05-23T01:01:59.044Z,12.32
2023-05-23T01:04:28.913Z,12.30
2023-05-23T01:06:58.117Z,12.29
2023-05-23T01:09:29.280Z,12.26
2023-05-23T01:12:11.149Z,12.24
2023-05-23T01:14:54.473Z,12.20
2023-05-23T01:17:42.704Z,12.18
2023-05-23T01:20:22.194Z,12.14
2023-05-23T01:23:23.909Z,12.11
2023-05-23T01:26:00.042Z,12.08
2023-05-23T01:28:32.643Z,12.05
2023-05-23T01:31:03.747Z,12.04
2023-05-23T01:33:33.933Z,12.02
2023-05-23T01:36:04.229Z,12.01
2023-05-23T01:38:32.927Z,12.00
2023-05-23T01:41:02.115Z,11.98
2023-05-23T01:43:31.018Z,11.95
2023-05-23T01:46:00.224Z,11.92
2023-05-23T01:48:29.822Z,11.90
2023-05-23T01:50:59.851Z,11.88
2023-05-23T01:53:29.437Z,11.85
2023-05-23T01:55:58.040Z,11.82
2023-05-23T01:58:27.626Z,11.79
2023-05-23T02:00:56.757Z,11.77
2023-05-23T02:03:25.404Z,11.75
2023-05-23T02:05:54.408Z,11.71
2023-05-23T02:08:23.089Z,11.70
2023-05-23T02:10:51.677Z,11.66
2023-05-23T02:13:22.024Z,11.63
2023-05-23T02:15:51.115Z,11.60
2023-05-23T02:18:21.243Z,11.56
2023-05-23T02:20:51.922Z,11.53
2023-05-23T02:23:20.519Z,11.49
2023-05-23T02:25:49.635Z,11.44
2023-05-23T02:28:18.112Z,11.40
2023-05-23T02:30:47.540Z,11.36
2023-05-23T02:33:17.219Z,11.32
2023-05-23T02:35:46.829Z,11.29
2023-05-23T02:38:17.149Z,11.28
2023-05-23T02:40:45.948Z,11.27
2023-05-23T02:43:14.620Z,11.28
2023-05-23T02:45:43.432Z,11.28
2023-05-23T02:48:15.190Z,11.28
2023-05-23T02:50:44.262Z,11.28
2023-05-23T02:53:13.152Z,11.28
2023-05-23T02:55:43.401Z,11.27
2023-05-23T02:58:12.269Z,11.26
2023-05-23T03:00:44.449Z,11.22
2023-05-23T03:03:13.635Z,11.19
2023-05-23T03:05:42.749Z,11.16
2023-05-23T03:08:12.061Z,11.14
2023-05-23T03:10:41.874Z,11.12
2023-05-23T03:13:12.603Z,11.11
2023-05-23T03:15:41.789Z,11.11
2023-05-23T03:18:10.876Z,11.11
2023-05-23T03:20:39.765Z,11.12
2023-05-23T03:23:08.785Z,11.14
2023-05-23T03:25:37.579Z,11.18
2023-05-23T03:28:06.867Z,11.24
2023-05-23T03:30:35.874Z,11.30
2023-05-23T03:33:05.394Z,11.38
2023-05-23T03:35:34.164Z,11.45
2023-05-23T03:38:03.232Z,11.52
2023-05-23T03:40:32.246Z,11.59
2023-05-23T03:43:10.031Z,11.65
2023-05-23T03:45:41.022Z,11.72
2023-05-23T03:48:14.261Z,11.75
2023-05-23T03:50:43.774Z,11.78
2023-05-23T03:53:13.672Z,11.81
2023-05-23T03:55:43.521Z,11.87
2023-05-23T03:58:13.721Z,11.96
2023-05-23T04:00:43.823Z,12.03
2023-05-23T04:03:16.502Z,12.10
2023-05-23T04:05:45.523Z,12.17
2023-05-23T04:08:15.125Z,12.23
2023-05-23T04:10:43.920Z,12.27
2023-05-23T04:13:12.900Z,12.31
2023-05-23T04:15:42.077Z,12.35
2023-05-23T04:18:13.345Z,12.40
2023-05-23T04:20:42.852Z,12.45
2023-05-23T04:23:12.559Z,12.53
2023-05-23T04:25:45.865Z,12.59
2023-05-23T04:28:23.820Z,12.68
2023-05-23T04:30:54.206Z,12.81
2023-05-23T04:33:26.728Z,12.98
2023-05-23T04:35:55.313Z,13.16
2023-05-23T04:38:25.537Z,13.36
2023-05-23T04:40:54.780Z,13.57
2023-05-23T04:43:59.360Z,13.83
2023-05-23T04:46:35.438Z,14.05
2023-05-23T04:49:37.776Z,14.32
2023-05-23T04:52:06.691Z,14.52
2023-05-23T04:54:36.803Z,14.70
2023-05-23T04:57:07.123Z,14.87
2023-05-23T04:59:36.033Z,15.05
2023-05-23T05:02:06.834Z,15.26
2023-05-23T05:04:35.761Z,15.47
2023-05-23T05:07:04.941Z,15.68
2023-05-23T05:09:33.941Z,15.90
2023-05-23T05:12:03.141Z,16.10
2023-05-23T05:14:32.022Z,16.26
2023-05-23T05:17:03.227Z,16.41
2023-05-23T05:19:39.536Z,16.59
2023-05-23T05:22:08.736Z,16.74
2023-05-23T05:24:37.722Z,16.86
2023-05-23T05:27:07.468Z,16.94
2023-05-23T05:29:37.049Z,17.02
2023-05-23T05:32:09.774Z,17.09
2023-05-23T05:34:39.226Z,17.20
2023-05-23T05:37:08.320Z,17.30
2023-05-23T05:39:38.979Z,17.40
2023-05-23T05:42:08.268Z,17.50
2023-05-23T05:44:37.250Z,17.58
2023-05-23T05:47:07.576Z,17.62
2023-05-23T05:49:36.363Z,17.68
2023-05-23T05:52:07.320Z,17.80
2023-05-23T05:54:36.816Z,17.95
2023-05-23T05:57:06.121Z,18.11
2023-05-23T05:59:35.182Z,18.28
2023-05-23T06:02:04.087Z,18.44
2023-05-23T06:04:33.354Z,18.63
2023-05-23T06:07:02.418Z,18.80
2023-05-23T06:09:31.785Z,18.97
2023-05-23T06:12:00.701Z,19.12
2023-05-23T06:14:30.274Z,19.21
2023-05-23T06:17:00.220Z,19.22
2023-05-23T06:19:29.386Z,19.20
2023-05-23T06:21:59.009Z,19.16
2023-05-23T06:24:27.867Z,19.07
2023-05-23T06:26:57.156Z,19.01
2023-05-23T06:29:26.597Z,18.98
2023-05-23T06:31:59.844Z,18.95
2023-05-23T06:34:29.498Z,18.96
2023-05-23T06:36:58.503Z,19.00
2023-05-23T06:39:27.897Z,19.08
2023-05-23T06:41:57.133Z,19.20
2023-05-23T06:44:27.731Z,19.37
2023-05-23T06:46:58.080Z,19.57
2023-05-23T06:49:28.072Z,19.76
2023-05-23T06:51:59.103Z,19.94
2023-05-23T06:54:28.811Z,20.13
2023-05-23T06:56:57.987Z,20.38
2023-05-23T06:59:27.633Z,20.61
2023-05-23T07:01:57.426Z,20.84
2023-05-23T07:04:26.629Z,21.08
2023-05-23T07:06:56.540Z,21.31
2023-05-23T07:09:26.205Z,21.51
2023-05-23T07:12:00.197Z,21.73
2023-05-23T07:14:29.366Z,21.92
2023-05-23T07:16:58.888Z,22.13
2023-05-23T07:19:28.318Z,22.36
2023-05-23T07:21:57.429Z,22.56
2023-05-23T07:24:26.672Z,22.71
2023-05-23T07:26:57.664Z,22.82
2023-05-23T07:29:27.009Z,22.87
2023-05-23T07:31:55.792Z,22.88
2023-05-23T07:34:24.868Z,22.90
2023-05-23T07:36:58.175Z,22.91
2023-05-23T07:39:28.789Z,22.84
2023-05-23T07:41:58.951Z,22.75
2023-05-23T07:44:33.965Z,22.69
2023-05-23T07:47:03.629Z,22.64
2023-05-23T07:49:33.083Z,22.66
2023-05-23T07:52:02.679Z,22.66
2023-05-23T07:54:33.927Z,22.60
2023-05-23T07:57:04.657Z,22.54
2023-05-23T07:59:33.569Z,22.51
2023-05-23T08:02:03.620Z,22.57
2023-05-23T08:04:32.999Z,22.67
2023-05-23T08:07:06.277Z,22.79
2023-05-23T08:09:43.660Z,22.91
2023-05-23T08:12:17.252Z,23.00
2023-05-23T08:14:51.762Z,23.08
2023-05-23T08:17:34.518Z,23.12
2023-05-23T08:20:05.683Z,23.12
2023-05-23T08:22:35.077Z,23.08
2023-05-23T08:25:06.721Z,22.98
2023-05-23T08:27:38.029Z,22.84
2023-05-23T08:30:14.122Z,22.69
2023-05-23T08:32:43.156Z,22.54
2023-05-23T08:35:12.423Z,22.40
2023-05-23T08:37:43.523Z,22.30
2023-05-23T08:40:23.622Z,22.21
2023-05-23T08:43:05.924Z,22.12
2023-05-23T08:45:35.797Z,22.05
2023-05-23T08:48:07.891Z,21.96
2023-05-23T08:50:39.210Z,21.87
2023-05-23T08:53:10.641Z,21.81
2023-05-23T08:55:40.787Z,21.77
2023-05-23T08:58:11.130Z,21.73
2023-05-23T09:00:49.006Z,21.67
2023-05-23T09:03:18.744Z,21.61
2023-05-23T09:06:22.152Z,21.54
2023-05-23T09:08:52.331Z,21.51
2023-05-23T09:11:22.581Z,21.50
2023-05-23T09:13:51.975Z,21.48
2023-05-23T09:16:22.738Z,21.42
2023-05-23T09:18:55.547Z,21.32
2023-05-23T09:21:26.856Z,21.20
2023-05-23T09:24:04.841Z,21.06
2023-05-23T09:26:34.151Z,20.92
2023-05-23T09:29:06.750Z,20.79
2023-05-23T09:31:36.047Z,20.64
2023-05-23T09:34:07.465Z,20.49
2023-05-23T09:36:37.294Z,20.34
2023-05-23T09:39:06.293Z,20.22
2023-05-23T09:41:36.300Z,20.17
2023-05-23T09:44:11.823Z,20.11
2023-05-23T09:46:41.554Z,20.02
2023-05-23T09:49:22.737Z,19.96
2023-05-23T09:52:02.276Z,19.86
2023-05-23T09:54:31.269Z,19.76
2023-05-23T09:57:01.962Z,19.69
2023-05-23T09:59:33.104Z,19.66
2023-05-23T10:02:04.135Z,19.65
2023-05-23T10:04:35.864Z,19.67
2023-05-23T10:07:17.727Z,19.69
2023-05-23T10:09:51.570Z,19.72
2023-05-23T10:12:49.415Z,19.77
2023-05-23T10:15:19.791Z,19.84
2023-05-23T10:18:05.717Z,19.90
2023-05-23T10:20:35.732Z,19.94
2023-05-23T10:23:05.876Z,20.00
2023-05-23T10:25:37.649Z,20.07
2023-05-23T10:28:06.694Z,20.19
2023-05-23T10:30:36.321Z,20.35
2023-05-23T10:33:05.975Z,20.50
2023-05-23T10:35:35.280Z,20.64
2023-05-23T10:38:14.559Z,20.84
2023-05-23T10:40:54.527Z,21.04
2023-05-23T10:43:28.103Z,21.23
2023-05-23T10:45:57.293Z,21.44
2023-05-23T10:48:30.092Z,21.58
2023-05-23T10:51:08.430Z,21.70
2023-05-23T10:53:48.861Z,21.83
2023-05-23T10:56:24.287Z,22.00
2023-05-23T10:58:58.099Z,22.12
2023-05-23T11:01:28.281Z,22.31
2023-05-23T11:03:57.180Z,22.52
2023-05-23T11:06:44.869Z,22.72
2023-05-23T11:09:21.694Z,22.90
2023-05-23T11:12:08.185Z,23.07
2023-05-23T11:14:38.583Z,23.21
2023-05-23T11:17:13.744Z,23.30
2023-05-23T11:20:13.822Z,23.42
2023-05-23T11:22:54.689Z,23.56
2023-05-23T11:25:43.980Z,23.72
2023-05-23T11:28:13.360Z,23.79
2023-05-23T11:30:42.470Z,23.84
2023-05-23T11:33:15.727Z,23.93
2023-05-23T11:35:46.726Z,24.02
2023-05-23T11:38:17.275Z,24.08
2023-05-23T11:40:49.921Z,24.08
2023-05-23T11:43:20.219Z,24.15
2023-05-23T11:45:49.264Z,24.30
2023-05-23T11:48:18.621Z,24.37
2023-05-23T11:50:52.472Z,24.50
2023-05-23T11:53:26.126Z,24.65
2023-05-23T11:55:58.033Z,24.77
2023-05-23T11:58:29.653Z,24.76
2023-05-23T12:01:07.369Z,24.76
2023-05-23T12:03:47.171Z,24.79
2023-05-23T12:06:19.979Z,24.77
2023-05-23T12:08:49.064Z,24.74
2023-05-23T12:11:18.821Z,24.74
2023-05-23T12:13:48.306Z,24.69
2023-05-23T12:16:17.635Z,24.66
2023-05-23T12:18:46.809Z,24.66
2023-05-23T12:21:16.175Z,24.72
2023-05-23T12:23:45.372Z,24.76
2023-05-23T12:26:14.265Z,24.76
2023-05-23T12:28:45.660Z,24.72
2023-05-23T12:31:18.092Z,24.71
2023-05-23T12:33:49.260Z,24.72
2023-05-23T12:36:24.795Z,24.65
2023-05-23T12:38:54.499Z,24.57
2023-05-23T12:41:23.790Z,24.51
2023-05-23T12:43:54.495Z,24.48
2023-05-23T12:46:25.552Z,24.50
2023-05-23T12:48:55.073Z,24.51
2023-05-23T12:51:23.982Z,24.46
2023-05-23T12:53:52.972Z,24.41
2023-05-23T12:56:23.064Z,24.41
2023-05-23T12:58:52.554Z,24.40
2023-05-23T13:01:22.410Z,24.36
2023-05-23T13:03:51.391Z,24.33
2023-05-23T13:06:20.587Z,24.33
2023-05-23T13:08:51.434Z,24.32
2023-05-23T13:11:23.802Z,24.31
2023-05-23T13:13:53.434Z,24.31
2023-05-23T13:16:23.113Z,24.28
2023-05-23T13:18:52.865Z,24.29
2023-05-23T13:21:23.089Z,24.33
2023-05-23T13:23:52.334Z,24.31
2023-05-23T13:26:21.319Z,24.28
2023-05-23T13:28:51.451Z,24.23
2023-05-23T13:31:20.306Z,24.22
2023-05-23T13:33:49.635Z,24.19
2023-05-23T13:36:18.628Z,24.16
2023-05-23T13:38:47.831Z,24.16
2023-05-23T13:41:17.430Z,24.22
2023-05-23T13:43:46.739Z,24.28
2023-05-23T13:46:15.826Z,24.39
2023-05-23T13:48:44.837Z,24.56
2023-05-23T13:51:13.949Z,24.76
2023-05-23T13:53:43.323Z,24.88
2023-05-23T13:56:12.749Z,24.95
2023-05-23T13:58:43.570Z,25.01
2023-05-23T14:01:13.057Z,25.08
2023-05-23T14:03:42.052Z,25.09
2023-05-23T14:06:13.610Z,25.07
2023-05-23T14:08:42.627Z,25.01
2023-05-23T14:11:11.821Z,24.95
2023-05-23T14:13:40.397Z,24.86
2023-05-23T14:16:09.948Z,24.77
2023-05-23T14:18:39.186Z,24.69
2023-05-23T14:21:08.289Z,24.61
2023-05-23T14:23:37.474Z,24.47
2023-05-23T14:26:07.195Z,24.33
2023-05-23T14:28:36.076Z,24.21
2023-05-23T14:31:05.497Z,24.10
2023-05-23T14:33:35.196Z,24.00
2023-05-23T14:36:04.482Z,23.86
2023-05-23T14:38:33.589Z,23.72
2023-05-23T14:41:02.788Z,23.55
2023-05-23T14:43:32.855Z,23.39
2023-05-23T14:46:03.620Z,23.24
2023-05-23T14:48:37.724Z,23.05
2023-05-23T14:51:21.411Z,22.83
2023-05-23T14:54:00.643Z,22.60
2023-05-23T14:56:30.137Z,22.39
2023-05-23T14:59:00.712Z,22.17
2023-05-23T15:01:30.586Z,21.95
2023-05-23T15:04:00.356Z,21.84
2023-05-23T15:06:30.114Z,21.83
2023-05-23T15:09:00.785Z,21.87
2023-05-23T15:11:29.654Z,21.96
2023-05-23T15:14:00.019Z,22.08
2023-05-23T15:16:33.704Z,22.19
2023-05-23T15:19:03.072Z,22.31
2023-05-23T15:21:32.861Z,22.35
2023-05-23T15:24:02.154Z,22.34
2023-05-23T15:26:31.467Z,22.35
2023-05-23T15:29:01.006Z,22.39
2023-05-23T15:31:30.394Z,22.40
2023-05-23T15:33:59.760Z,22.39
2023-05-23T15:36:28.859Z,22.35
2023-05-23T15:38:58.894Z,22.20
2023-05-23T15:41:28.494Z,22.08
2023-05-23T15:43:57.488Z,21.93
2023-05-23T15:46:26.972Z,21.76
2023-05-23T15:49:05.026Z,21.60
2023-05-23T15:51:39.829Z,21.45
2023-05-23T15:54:08.819Z,21.33
2023-05-23T15:56:40.670Z,21.22
2023-05-23T15:59:10.090Z,21.16
2023-05-23T16:01:41.308Z,21.14
2023-05-23T16:04:13.204Z,21.12
2023-05-23T16:06:43.789Z,21.13
2023-05-23T16:09:14.609Z,21.15
2023-05-23T16:11:45.609Z,21.20
2023-05-23T16:14:15.612Z,21.21
2023-05-23T16:16:45.916Z,21.18
2023-05-23T16:19:15.268Z,21.13
2023-05-23T16:21:44.630Z,21.07
2023-05-23T16:24:17.483Z,21.00
2023-05-23T16:26:46.730Z,20.92
2023-05-23T16:29:17.504Z,20.85
2023-05-23T16:31:47.313Z,20.78
2023-05-23T16:34:16.275Z,20.69
2023-05-23T16:36:45.675Z,20.60
2023-05-23T16:39:14.986Z,20.51
2023-05-23T16:41:44.484Z,20.42
2023-05-23T16:44:13.587Z,20.35
2023-05-23T16:46:43.156Z,20.28
2023-05-23T16:49:12.066Z,20.24
2023-05-23T16:51:40.840Z,20.23
2023-05-23T16:54:10.354Z,20.20
2023-05-23T16:56:40.159Z,20.15
2023-05-23T16:59:09.479Z,20.10
2023-05-23T17:01:38.674Z,20.03
2023-05-23T17:04:07.651Z,19.97
2023-05-23T17:06:37.763Z,19.92
2023-05-23T17:09:06.871Z,19.86
2023-05-23T17:11:36.070Z,19.82
2023-05-23T17:14:05.794Z,19.77
2023-05-23T17:16:37.700Z,19.72
2023-05-23T17:19:11.686Z,19.67
2023-05-23T17:21:41.832Z,19.61
2023-05-23T17:24:11.157Z,19.57
2023-05-23T17:26:40.787Z,19.54
2023-05-23T17:29:09.967Z,19.48
2023-05-23T17:31:40.533Z,19.39
2023-05-23T17:34:09.907Z,19.32
2023-05-23T17:36:42.947Z,19.27
2023-05-23T17:39:13.201Z,19.24
2023-05-23T17:41:42.712Z,19.17
2023-05-23T17:44:12.535Z,19.15
2023-05-23T17:46:41.939Z,19.15
2023-05-23T17:49:10.760Z,19.15
2023-05-23T17:51:40.428Z,19.14
2023-05-23T17:54:10.177Z,19.13
2023-05-23T17:56:39.034Z,19.11
2023-05-23T17:59:08.318Z,19.09
2023-05-23T18:01:37.519Z,19.07
2023-05-23T18:04:07.840Z,19.04
2023-05-23T18:06:37.351Z,18.99
2023-05-23T18:09:06.787Z,18.95
2023-05-23T18:11:36.019Z,18.88
2023-05-23T18:14:05.470Z,18.81
2023-05-23T18:16:34.346Z,18.76
2023-05-23T18:19:04.246Z,18.71
2023-05-23T18:21:35.624Z,18.66
2023-05-23T18:24:05.591Z,18.62
2023-05-23T18:26:34.943Z,18.58
2023-05-23T18:29:05.316Z,18.52
2023-05-23T18:31:35.186Z,18.45
2023-05-23T18:34:05.396Z,18.38
2023-05-23T18:36:35.709Z,18.29
2023-05-23T18:39:06.043Z,18.22
2023-05-23T18:41:37.808Z,18.14
2023-05-23T18:44:08.236Z,18.05
2023-05-23T18:46:37.818Z,17.92
2023-05-23T18:49:07.041Z,17.78
2023-05-23T18:51:40.236Z,17.65
2023-05-23T18:54:11.897Z,17.53
2023-05-23T18:56:41.775Z,17.42
2023-05-23T18:59:17.198Z,17.33
2023-05-23T19:01:49.337Z,17.26
2023-05-23T19:04:22.057Z,17.17
2023-05-23T19:06:53.684Z,17.09
2023-05-23T19:09:26.940Z,17.01
2023-05-23T19:11:59.208Z,16.96
2023-05-23T19:14:30.672Z,16.93
2023-05-23T19:17:07.807Z,16.89
2023-05-23T19:19:39.950Z,16.86
2023-05-23T19:22:13.905Z,16.84
2023-05-23T19:24:45.912Z,16.82
2023-05-23T19:27:16.804Z,16.78
2023-05-23T19:29:46.125Z,16.76
2023-05-23T19:32:15.672Z,16.72
2023-05-23T19:34:45.746Z,16.68
2023-05-23T19:37:15.643Z,16.65
2023-05-23T19:39:46.480Z,16.62
2023-05-23T19:42:16.085Z,16.57
2023-05-23T19:44:45.823Z,16.54
2023-05-23T19:47:14.991Z,16.48
2023-05-23T19:49:44.825Z,16.46
2023-05-23T19:52:14.741Z,16.42
2023-05-23T19:54:45.653Z,16.40
2023-05-23T19:57:14.752Z,16.38
2023-05-23T19:59:44.150Z,16.36
2023-05-23T20:02:14.172Z,16.35
2023-05-23T20:04:43.293Z,16.34
2023-05-23T20:07:12.920Z,16.33
2023-05-23T20:09:42.088Z,16.33
2023-05-23T20:12:11.925Z,16.31
2023-05-23T20:14:41.808Z,16.30
2023-05-23T20:17:11.009Z,16.30
2023-05-23T20:19:43.069Z,16.29
2023-05-23T20:22:12.271Z,16.29
2023-05-23T20:24:41.496Z,16.28
2023-05-23T20:27:10.664Z,16.27
2023-05-23T20:29:39.569Z,16.25
2023-05-23T20:32:08.750Z,16.24
2023-05-23T20:34:38.251Z,16.21
2023-05-23T20:37:07.688Z,16.19
2023-05-23T20:39:38.197Z,16.15
2023-05-23T20:42:10.905Z,16.13
2023-05-23T20:44:40.059Z,16.10
2023-05-23T20:47:12.924Z,16.05
2023-05-23T20:49:43.175Z,16.01
2023-05-23T20:52:12.370Z,15.97
2023-05-23T20:54:43.449Z,15.93
2023-05-23T20:57:13.234Z,15.91
2023-05-23T20:59:42.327Z,15.86
2023-05-23T21:02:13.685Z,15.81
2023-05-23T21:04:42.773Z,15.77
2023-05-23T21:07:12.499Z,15.73
2023-05-23T21:09:42.608Z,15.70
2023-05-23T21:12:11.471Z,15.66
2023-05-23T21:14:41.508Z,15.63
2023-05-23T21:17:11.333Z,15.61
2023-05-23T21:19:45.966Z,15.59
2023-05-23T21:22:14.925Z,15.58
2023-05-23T21:24:44.348Z,15.57
2023-05-23T21:27:13.825Z,15.58
2023-05-23T21:29:43.211Z,15.59
2023-05-23T21:32:12.420Z,15.59
2023-05-23T21:34:42.172Z,15.59
2023-05-23T21:37:11.623Z,15.59
2023-05-23T21:39:50.519Z,15.58
2023-05-23T21:42:21.800Z,15.57
2023-05-23T21:44:51.639Z,15.57
2023-05-23T21:47:21.876Z,15.56
2023-05-23T21:49:50.776Z,15.54
2023-05-23T21:52:20.139Z,15.52
2023-05-23T21:54:49.571Z,15.49
2023-05-23T21:57:18.569Z,15.45
2023-05-23T21:59:47.227Z,15.43
2023-05-23T22:02:16.340Z,15.39
2023-05-23T22:04:46.547Z,15.37
2023-05-23T22:07:15.337Z,15.37
2023-05-23T22:09:44.235Z,15.36
2023-05-23T22:12:14.145Z,15.36
2023-05-23T22:14:42.831Z,15.35
2023-05-23T22:17:14.560Z,15.35
2023-05-23T22:19:43.300Z,15.35
2023-05-23T22:22:12.682Z,15.34
2023-05-23T22:24:41.269Z,15.33
2023-05-23T22:27:10.054Z,15.33
2023-05-23T22:29:39.290Z,15.33
2023-05-23T22:32:08.177Z,15.32
2023-05-23T22:34:37.235Z,15.32
2023-05-23T22:37:06.023Z,15.31
2023-05-23T22:39:34.692Z,15.29
2023-05-23T22:42:03.889Z,15.27
2023-05-23T22:44:32.797Z,15.24
2023-05-23T22:47:04.274Z,15.20
2023-05-23T22:49:32.921Z,15.17
2023-05-23T22:52:02.952Z,15.14
2023-05-23T22:54:31.836Z,15.12
2023-05-23T22:57:01.866Z,15.10
2023-05-23T22:59:31.353Z,15.08
2023-05-23T23:02:00.988Z,15.08
2023-05-23T23:04:31.506Z,15.08
2023-05-23T23:07:02.218Z,15.08
2023-05-23T23:09:31.118Z,15.07
2023-05-23T23:11:59.696Z,15.06
2023-05-23T23:14:28.494Z,15.05
2023-05-23T23:16:58.532Z,15.05
2023-05-23T23:19:30.062Z,15.04
2023-05-23T23:21:58.769Z,15.01
2023-05-23T23:24:27.730Z,14.97
2023-05-23T23:26:56.437Z,14.94
2023-05-23T23:29:25.226Z,14.87
2023-05-23T23:31:56.454Z,14.80
2023-05-23T23:34:25.157Z,14.74
2023-05-23T23:36:54.034Z,14.69
2023-05-23T23:39:23.029Z,14.62
2023-05-23T23:41:51.910Z,14.53
2023-05-23T23:44:20.795Z,14.45
2023-05-23T23:46:49.524Z,14.37
2023-05-23T23:49:19.737Z,14.31
2023-05-23T23:51:48.762Z,14.26
2023-05-23T23:54:17.592Z,14.22
2023-05-23T23:56:46.474Z,14.19
2023-05-23T23:59:15.168Z,14.15
